sensor_id;sensor_type;location;lat;lon;timestamp;P1;durP1;ratioP1;P2;durP2;ratioP2
60225;SDS011;46090;48.436;11.410;2022-07-01T00:02:10;5.28;;;2.28;;
60225;SDS011;46090;48.436;11.410;2022-07-01T00:04:46;4.63;;;2.10;;
60225;SDS011;46090;48.436;11.410;2022-07-01T00:07:34;6.60;;;2.00;;
60225;SDS011;46090;48.436;11.410;2022-07-01T00:10:05;4.78;;;1.92;;
60225;SDS011;46090;48.436;11.410;2022-07-01T00:12:35;5.63;;;2.05;;
60225;SDS011;46090;48.436;11.410;2022-07-01T00:15:03;5.22;;;1.90;;
60225;SDS011;46090;48.436;11.410;2022-07-01T00:17:36;5.00;;;1.80;;
60225;SDS011;46090;48.436;11.410;2022-07-01T00:20:06;5.15;;;1.40;;
60225;SDS011;46090;48.436;11.410;2022-07-01T00:22:37;5.45;;;1.40;;
60225;SDS011;46090;48.436;11.410;2022-07-01T00:25:05;3.40;;;1.40;;
60225;SDS011;46090;48.436;11.410;2022-07-01T00:27:37;4.03;;;1.10;;
60225;SDS011;46090;48.436;11.410;2022-07-01T00:30:07;5.82;;;1.15;;
60225;SDS011;46090;48.436;11.410;2022-07-01T00:32:35;3.22;;;1.10;;
60225;SDS011;46090;48.436;11.410;2022-07-01T00:35:02;3.45;;;1.00;;
60225;SDS011;46090;48.436;11.410;2022-07-01T00:37:29;4.05;;;1.08;;
60225;SDS011;46090;48.436;11.410;2022-07-01T00:39:56;2.92;;;1.10;;
60225;SDS011;46090;48.436;11.410;2022-07-01T00:42:25;2.85;;;1.08;;
60225;SDS011;46090;48.436;11.410;2022-07-01T00:44:51;8.18;;;1.10;;
60225;SDS011;46090;48.436;11.410;2022-07-01T00:47:18;2.90;;;1.10;;
60225;SDS011;46090;48.436;11.410;2022-07-01T00:49:45;3.17;;;0.90;;
60225;SDS011;46090;48.436;11.410;2022-07-01T00:52:12;3.45;;;0.90;;
60225;SDS011;46090;48.436;11.410;2022-07-01T00:54:39;3.10;;;0.95;;
60225;SDS011;46090;48.436;11.410;2022-07-01T00:57:07;2.58;;;0.80;;
60225;SDS011;46090;48.436;11.410;2022-07-01T00:59:36;3.83;;;0.73;;
60225;SDS011;46090;48.436;11.410;2022-07-01T01:02:05;4.72;;;0.95;;
60225;SDS011;46090;48.436;11.410;2022-07-01T01:18:29;2.67;;;0.60;;
60225;SDS011;46090;48.436;11.410;2022-07-01T01:20:57;2.83;;;0.77;;
60225;SDS011;46090;48.436;11.410;2022-07-01T01:23:25;3.70;;;0.70;;
60225;SDS011;46090;48.436;11.410;2022-07-01T01:25:52;2.45;;;0.63;;
60225;SDS011;46090;48.436;11.410;2022-07-01T01:28:19;1.40;;;0.60;;
60225;SDS011;46090;48.436;11.410;2022-07-01T01:30:48;1.40;;;0.45;;
60225;SDS011;46090;48.436;11.410;2022-07-01T01:33:16;2.35;;;0.60;;
60225;SDS011;46090;48.436;11.410;2022-07-01T01:35:48;3.78;;;0.68;;
60225;SDS011;46090;48.436;11.410;2022-07-01T01:38:18;5.72;;;0.80;;
60225;SDS011;46090;48.436;11.410;2022-07-01T01:40:46;4.20;;;0.52;;
60225;SDS011;46090;48.436;11.410;2022-07-01T01:43:17;5.10;;;0.60;;
60225;SDS011;46090;48.436;11.410;2022-07-01T01:45:45;1.88;;;0.50;;
60225;SDS011;46090;48.436;11.410;2022-07-01T01:48:11;1.67;;;0.40;;
60225;SDS011;46090;48.436;11.410;2022-07-01T01:50:43;2.42;;;0.45;;
60225;SDS011;46090;48.436;11.410;2022-07-01T01:53:12;1.95;;;0.57;;
60225;SDS011;46090;48.436;11.410;2022-07-01T01:55:40;2.83;;;0.43;;
60225;SDS011;46090;48.436;11.410;2022-07-01T01:58:09;1.45;;;0.32;;
60225;SDS011;46090;48.436;11.410;2022-07-01T02:00:37;2.53;;;0.50;;
60225;SDS011;46090;48.436;11.410;2022-07-01T02:03:08;2.15;;;0.43;;
60225;SDS011;46090;48.436;11.410;2022-07-01T02:05:37;2.28;;;0.40;;
60225;SDS011;46090;48.436;11.410;2022-07-01T02:10:41;2.75;;;0.38;;
60225;SDS011;46090;48.436;11.410;2022-07-01T02:13:10;1.48;;;0.47;;
60225;SDS011;46090;48.436;11.410;2022-07-01T02:15:40;1.83;;;0.30;;
60225;SDS011;46090;48.436;11.410;2022-07-01T02:18:07;3.47;;;0.50;;
60225;SDS011;46090;48.436;11.410;2022-07-01T02:20:35;1.50;;;0.32;;
60225;SDS011;46090;48.436;11.410;2022-07-01T02:23:02;2.75;;;0.50;;
60225;SDS011;46090;48.436;11.410;2022-07-01T02:25:29;1.80;;;0.47;;
60225;SDS011;46090;48.436;11.410;2022-07-01T02:27:58;2.53;;;0.40;;
60225;SDS011;46090;48.436;11.410;2022-07-01T02:30:26;3.47;;;0.47;;
60225;SDS011;46090;48.436;11.410;2022-07-01T02:32:54;2.38;;;0.45;;
60225;SDS011;46090;48.436;11.410;2022-07-01T02:35:23;2.03;;;0.40;;
60225;SDS011;46090;48.436;11.410;2022-07-01T02:37:51;3.33;;;0.50;;
60225;SDS011;46090;48.436;11.410;2022-07-01T02:40:20;1.98;;;0.40;;
60225;SDS011;46090;48.436;11.410;2022-07-01T02:42:49;2.92;;;0.45;;
60225;SDS011;46090;48.436;11.410;2022-07-01T02:45:17;1.70;;;0.50;;
60225;SDS011;46090;48.436;11.410;2022-07-01T02:47:44;1.25;;;0.32;;
60225;SDS011;46090;48.436;11.410;2022-07-01T02:50:12;2.35;;;0.57;;
60225;SDS011;46090;48.436;11.410;2022-07-01T02:55:14;2.20;;;0.40;;
60225;SDS011;46090;48.436;11.410;2022-07-01T02:57:41;1.83;;;0.40;;
60225;SDS011;46090;48.436;11.410;2022-07-01T03:00:10;2.78;;;0.50;;
60225;SDS011;46090;48.436;11.410;2022-07-01T03:02:40;2.05;;;0.47;;
60225;SDS011;46090;48.436;11.410;2022-07-01T03:05:09;0.88;;;0.30;;
60225;SDS011;46090;48.436;11.410;2022-07-01T03:07:39;1.48;;;0.35;;
60225;SDS011;46090;48.436;11.410;2022-07-01T03:10:07;2.15;;;0.70;;
60225;SDS011;46090;48.436;11.410;2022-07-01T03:12:36;1.42;;;0.32;;
60225;SDS011;46090;48.436;11.410;2022-07-01T03:15:11;2.92;;;0.50;;
60225;SDS011;46090;48.436;11.410;2022-07-01T03:17:40;2.13;;;0.30;;
60225;SDS011;46090;48.436;11.410;2022-07-01T03:20:09;2.03;;;0.30;;
60225;SDS011;46090;48.436;11.410;2022-07-01T03:22:38;1.95;;;0.30;;
60225;SDS011;46090;48.436;11.410;2022-07-01T03:25:05;2.90;;;0.82;;
60225;SDS011;46090;48.436;11.410;2022-07-01T03:27:34;1.58;;;0.35;;
60225;SDS011;46090;48.436;11.410;2022-07-01T03:30:01;1.23;;;0.30;;
60225;SDS011;46090;48.436;11.410;2022-07-01T03:32:32;1.52;;;0.50;;
60225;SDS011;46090;48.436;11.410;2022-07-01T03:35:00;0.95;;;0.30;;
60225;SDS011;46090;48.436;11.410;2022-07-01T03:37:48;1.33;;;0.20;;
60225;SDS011;46090;48.436;11.410;2022-07-01T03:40:16;2.17;;;0.30;;
60225;SDS011;46090;48.436;11.410;2022-07-01T03:42:43;2.90;;;0.52;;
60225;SDS011;46090;48.436;11.410;2022-07-01T03:45:11;2.10;;;0.52;;
60225;SDS011;46090;48.436;11.410;2022-07-01T03:47:47;1.40;;;0.50;;
60225;SDS011;46090;48.436;11.410;2022-07-01T03:50:17;2.25;;;0.50;;
60225;SDS011;46090;48.436;11.410;2022-07-01T03:52:50;1.20;;;0.40;;
60225;SDS011;46090;48.436;11.410;2022-07-01T03:55:39;2.08;;;0.30;;
60225;SDS011;46090;48.436;11.410;2022-07-01T03:58:07;2.03;;;0.40;;
60225;SDS011;46090;48.436;11.410;2022-07-01T04:00:35;3.70;;;0.40;;
60225;SDS011;46090;48.436;11.410;2022-07-01T04:03:04;2.03;;;0.45;;
60225;SDS011;46090;48.436;11.410;2022-07-01T04:05:35;1.98;;;0.40;;
60225;SDS011;46090;48.436;11.410;2022-07-01T04:08:05;2.47;;;0.57;;
60225;SDS011;46090;48.436;11.410;2022-07-01T04:10:35;2.28;;;0.45;;
60225;SDS011;46090;48.436;11.410;2022-07-01T04:13:05;1.38;;;0.40;;
60225;SDS011;46090;48.436;11.410;2022-07-01T04:15:52;1.83;;;0.40;;
60225;SDS011;46090;48.436;11.410;2022-07-01T04:18:22;1.75;;;0.30;;
60225;SDS011;46090;48.436;11.410;2022-07-01T04:20:51;1.50;;;0.40;;
60225;SDS011;46090;48.436;11.410;2022-07-01T04:23:37;1.63;;;0.40;;
60225;SDS011;46090;48.436;11.410;2022-07-01T04:26:06;1.30;;;0.30;;
60225;SDS011;46090;48.436;11.410;2022-07-01T04:28:54;1.58;;;0.55;;
60225;SDS011;46090;48.436;11.410;2022-07-01T04:31:22;3.10;;;0.50;;
60225;SDS011;46090;48.436;11.410;2022-07-01T04:33:49;1.10;;;0.30;;
60225;SDS011;46090;48.436;11.410;2022-07-01T04:36:17;2.03;;;0.45;;
60225;SDS011;46090;48.436;11.410;2022-07-01T04:38:46;1.95;;;0.50;;
60225;SDS011;46090;48.436;11.410;2022-07-01T04:41:14;1.30;;;0.40;;
60225;SDS011;46090;48.436;11.410;2022-07-01T04:43:59;2.05;;;0.50;;
60225;SDS011;46090;48.436;11.410;2022-07-01T04:46:27;1.90;;;0.50;;
60225;SDS011;46090;48.436;11.410;2022-07-01T04:48:54;2.85;;;0.52;;
60225;SDS011;46090;48.436;11.410;2022-07-01T04:51:21;2.13;;;0.40;;
60225;SDS011;46090;48.436;11.410;2022-07-01T04:53:48;2.15;;;0.40;;
60225;SDS011;46090;48.436;11.410;2022-07-01T04:56:16;1.42;;;0.40;;
60225;SDS011;46090;48.436;11.410;2022-07-01T04:58:45;1.85;;;0.40;;
60225;SDS011;46090;48.436;11.410;2022-07-01T05:01:12;1.98;;;0.50;;
60225;SDS011;46090;48.436;11.410;2022-07-01T05:03:41;1.80;;;0.60;;
60225;SDS011;46090;48.436;11.410;2022-07-01T05:06:09;1.70;;;0.40;;
60225;SDS011;46090;48.436;11.410;2022-07-01T05:08:36;1.27;;;0.38;;
60225;SDS011;46090;48.436;11.410;2022-07-01T05:11:03;2.20;;;0.47;;
60225;SDS011;46090;48.436;11.410;2022-07-01T05:13:30;1.65;;;0.50;;
60225;SDS011;46090;48.436;11.410;2022-07-01T05:15:58;2.10;;;0.40;;
60225;SDS011;46090;48.436;11.410;2022-07-01T05:18:25;4.57;;;0.60;;
60225;SDS011;46090;48.436;11.410;2022-07-01T05:21:12;2.33;;;0.80;;
60225;SDS011;46090;48.436;11.410;2022-07-01T05:24:02;1.42;;;0.40;;
60225;SDS011;46090;48.436;11.410;2022-07-01T05:26:29;1.42;;;0.40;;
60225;SDS011;46090;48.436;11.410;2022-07-01T05:28:56;1.10;;;0.40;;
60225;SDS011;46090;48.436;11.410;2022-07-01T05:31:24;1.20;;;0.30;;
60225;SDS011;46090;48.436;11.410;2022-07-01T05:33:52;6.03;;;0.93;;
60225;SDS011;46090;48.436;11.410;2022-07-01T05:36:20;1.67;;;0.40;;
60225;SDS011;46090;48.436;11.410;2022-07-01T05:38:48;1.90;;;0.63;;
60225;SDS011;46090;48.436;11.410;2022-07-01T05:41:15;1.52;;;0.43;;
60225;SDS011;46090;48.436;11.410;2022-07-01T05:43:42;2.25;;;0.60;;
60225;SDS011;46090;48.436;11.410;2022-07-01T05:46:11;2.15;;;0.60;;
60225;SDS011;46090;48.436;11.410;2022-07-01T05:48:38;2.22;;;0.60;;
60225;SDS011;46090;48.436;11.410;2022-07-01T05:51:05;2.90;;;0.70;;
60225;SDS011;46090;48.436;11.410;2022-07-01T05:53:32;1.63;;;0.55;;
60225;SDS011;46090;48.436;11.410;2022-07-01T05:56:01;2.40;;;0.40;;
60225;SDS011;46090;48.436;11.410;2022-07-01T05:58:29;3.50;;;0.70;;
60225;SDS011;46090;48.436;11.410;2022-07-01T06:00:57;2.55;;;0.77;;
60225;SDS011;46090;48.436;11.410;2022-07-01T06:03:41;3.67;;;0.80;;
60225;SDS011;46090;48.436;11.410;2022-07-01T06:06:09;1.90;;;0.85;;
60225;SDS011;46090;48.436;11.410;2022-07-01T06:08:41;3.42;;;1.50;;
60225;SDS011;46090;48.436;11.410;2022-07-01T06:11:09;4.15;;;1.75;;
60225;SDS011;46090;48.436;11.410;2022-07-01T06:13:39;2.80;;;1.20;;
60225;SDS011;46090;48.436;11.410;2022-07-01T06:16:07;1.33;;;0.68;;
60225;SDS011;46090;48.436;11.410;2022-07-01T06:18:35;2.08;;;0.60;;
60225;SDS011;46090;48.436;11.410;2022-07-01T06:21:03;3.40;;;0.80;;
60225;SDS011;46090;48.436;11.410;2022-07-01T06:23:33;1.70;;;0.60;;
60225;SDS011;46090;48.436;11.410;2022-07-01T06:26:00;1.48;;;0.60;;
60225;SDS011;46090;48.436;11.410;2022-07-01T06:28:37;2.00;;;0.60;;
60225;SDS011;46090;48.436;11.410;2022-07-01T06:31:04;1.98;;;0.57;;
60225;SDS011;46090;48.436;11.410;2022-07-01T06:33:31;1.95;;;0.70;;
60225;SDS011;46090;48.436;11.410;2022-07-01T06:36:00;2.60;;;0.70;;
60225;SDS011;46090;48.436;11.410;2022-07-01T06:38:28;3.33;;;0.40;;
60225;SDS011;46090;48.436;11.410;2022-07-01T06:40:57;1.20;;;0.50;;
60225;SDS011;46090;48.436;11.410;2022-07-01T06:43:43;1.25;;;0.20;;
60225;SDS011;46090;48.436;11.410;2022-07-01T06:46:11;2.92;;;0.20;;
60225;SDS011;46090;48.436;11.410;2022-07-01T06:48:39;0.57;;;0.10;;
60225;SDS011;46090;48.436;11.410;2022-07-01T06:51:06;2.28;;;0.20;;
60225;SDS011;46090;48.436;11.410;2022-07-01T06:53:34;1.48;;;0.30;;
60225;SDS011;46090;48.436;11.410;2022-07-01T06:56:01;1.95;;;0.50;;
60225;SDS011;46090;48.436;11.410;2022-07-01T06:58:30;1.05;;;0.30;;
60225;SDS011;46090;48.436;11.410;2022-07-01T07:01:01;2.03;;;0.32;;
60225;SDS011;46090;48.436;11.410;2022-07-01T07:03:29;0.93;;;0.28;;
60225;SDS011;46090;48.436;11.410;2022-07-01T07:06:03;1.77;;;0.40;;
60225;SDS011;46090;48.436;11.410;2022-07-01T07:08:33;1.55;;;0.47;;
60225;SDS011;46090;48.436;11.410;2022-07-01T07:11:00;1.55;;;0.30;;
60225;SDS011;46090;48.436;11.410;2022-07-01T07:13:27;2.03;;;0.50;;
60225;SDS011;46090;48.436;11.410;2022-07-01T07:15:54;3.17;;;0.85;;
60225;SDS011;46090;48.436;11.410;2022-07-01T07:18:21;2.17;;;0.68;;
60225;SDS011;46090;48.436;11.410;2022-07-01T07:20:47;3.28;;;0.90;;
60225;SDS011;46090;48.436;11.410;2022-07-01T07:23:15;1.58;;;0.60;;
60225;SDS011;46090;48.436;11.410;2022-07-01T07:25:42;4.78;;;1.10;;
60225;SDS011;46090;48.436;11.410;2022-07-01T07:28:09;1.63;;;0.60;;
60225;SDS011;46090;48.436;11.410;2022-07-01T07:30:36;1.25;;;0.38;;
60225;SDS011;46090;48.436;11.410;2022-07-01T07:33:03;5.82;;;0.50;;
60225;SDS011;46090;48.436;11.410;2022-07-01T07:35:32;1.20;;;0.40;;
60225;SDS011;46090;48.436;11.410;2022-07-01T07:38:00;1.70;;;0.47;;
60225;SDS011;46090;48.436;11.410;2022-07-01T07:40:28;2.65;;;0.40;;
60225;SDS011;46090;48.436;11.410;2022-07-01T07:42:55;2.40;;;0.63;;
60225;SDS011;46090;48.436;11.410;2022-07-01T07:45:24;1.60;;;0.30;;
60225;SDS011;46090;48.436;11.410;2022-07-01T07:47:52;2.13;;;0.32;;
60225;SDS011;46090;48.436;11.410;2022-07-01T07:50:21;0.88;;;0.30;;
60225;SDS011;46090;48.436;11.410;2022-07-01T07:52:53;1.90;;;0.20;;
60225;SDS011;46090;48.436;11.410;2022-07-01T07:55:22;1.13;;;0.20;;
60225;SDS011;46090;48.436;11.410;2022-07-01T07:57:51;1.75;;;0.20;;
60225;SDS011;46090;48.436;11.410;2022-07-01T08:00:20;2.72;;;0.30;;
60225;SDS011;46090;48.436;11.410;2022-07-01T08:02:50;0.82;;;0.10;;
60225;SDS011;46090;48.436;11.410;2022-07-01T08:05:18;0.95;;;0.10;;
60225;SDS011;46090;48.436;11.410;2022-07-01T08:07:48;1.30;;;0.20;;
60225;SDS011;46090;48.436;11.410;2022-07-01T08:10:15;1.33;;;0.10;;
60225;SDS011;46090;48.436;11.410;2022-07-01T08:12:43;0.40;;;0.10;;
60225;SDS011;46090;48.436;11.410;2022-07-01T08:15:12;0.88;;;0.20;;
60225;SDS011;46090;48.436;11.410;2022-07-01T08:17:42;3.92;;;0.30;;
60225;SDS011;46090;48.436;11.410;2022-07-01T08:20:09;2.42;;;0.30;;
60225;SDS011;46090;48.436;11.410;2022-07-01T08:22:38;2.33;;;0.20;;
60225;SDS011;46090;48.436;11.410;2022-07-01T08:25:05;0.98;;;0.30;;
60225;SDS011;46090;48.436;11.410;2022-07-01T08:27:33;1.80;;;0.22;;
60225;SDS011;46090;48.436;11.410;2022-07-01T08:30:02;1.00;;;0.35;;
60225;SDS011;46090;48.436;11.410;2022-07-01T08:32:31;1.48;;;0.40;;
60225;SDS011;46090;48.436;11.410;2022-07-01T08:35:00;1.90;;;0.30;;
60225;SDS011;46090;48.436;11.410;2022-07-01T08:37:27;3.28;;;0.20;;
60225;SDS011;46090;48.436;11.410;2022-07-01T08:39:56;1.60;;;0.40;;
60225;SDS011;46090;48.436;11.410;2022-07-01T08:42:23;2.88;;;0.60;;
60225;SDS011;46090;48.436;11.410;2022-07-01T08:44:51;2.15;;;0.40;;
60225;SDS011;46090;48.436;11.410;2022-07-01T08:47:19;2.00;;;0.60;;
60225;SDS011;46090;48.436;11.410;2022-07-01T08:49:47;1.35;;;0.35;;
60225;SDS011;46090;48.436;11.410;2022-07-01T08:52:15;1.20;;;0.30;;
60225;SDS011;46090;48.436;11.410;2022-07-01T08:54:43;1.65;;;0.38;;
60225;SDS011;46090;48.436;11.410;2022-07-01T08:57:11;2.63;;;0.43;;
60225;SDS011;46090;48.436;11.410;2022-07-01T08:59:38;3.72;;;0.50;;
60225;SDS011;46090;48.436;11.410;2022-07-01T09:02:06;3.17;;;0.47;;
60225;SDS011;46090;48.436;11.410;2022-07-01T09:04:35;1.67;;;0.40;;
60225;SDS011;46090;48.436;11.410;2022-07-01T09:07:06;1.35;;;0.32;;
60225;SDS011;46090;48.436;11.410;2022-07-01T09:09:37;1.92;;;0.50;;
60225;SDS011;46090;48.436;11.410;2022-07-01T09:12:10;1.35;;;0.40;;
60225;SDS011;46090;48.436;11.410;2022-07-01T09:14:38;1.10;;;0.35;;
60225;SDS011;46090;48.436;11.410;2022-07-01T09:17:08;1.60;;;0.40;;
60225;SDS011;46090;48.436;11.410;2022-07-01T09:19:48;2.53;;;0.77;;
60225;SDS011;46090;48.436;11.410;2022-07-01T09:22:16;2.42;;;0.50;;
60225;SDS011;46090;48.436;11.410;2022-07-01T09:24:45;1.70;;;0.40;;
60225;SDS011;46090;48.436;11.410;2022-07-01T09:27:12;1.70;;;0.50;;
60225;SDS011;46090;48.436;11.410;2022-07-01T09:29:49;1.88;;;0.32;;
60225;SDS011;46090;48.436;11.410;2022-07-01T09:32:19;1.02;;;0.38;;
60225;SDS011;46090;48.436;11.410;2022-07-01T09:34:53;1.60;;;0.52;;
60225;SDS011;46090;48.436;11.410;2022-07-01T09:39:56;1.83;;;0.50;;
60225;SDS011;46090;48.436;11.410;2022-07-01T09:42:26;1.67;;;0.45;;
60225;SDS011;46090;48.436;11.410;2022-07-01T09:44:59;1.63;;;0.50;;
60225;SDS011;46090;48.436;11.410;2022-07-01T09:47:31;1.70;;;0.50;;
60225;SDS011;46090;48.436;11.410;2022-07-01T09:50:02;1.17;;;0.30;;
60225;SDS011;46090;48.436;11.410;2022-07-01T09:52:32;1.45;;;0.50;;
60225;SDS011;46090;48.436;11.410;2022-07-01T09:55:04;1.48;;;0.40;;
60225;SDS011;46090;48.436;11.410;2022-07-01T09:57:33;1.08;;;0.40;;
60225;SDS011;46090;48.436;11.410;2022-07-01T10:00:06;1.33;;;0.40;;
60225;SDS011;46090;48.436;11.410;2022-07-01T10:02:36;1.05;;;0.30;;
60225;SDS011;46090;48.436;11.410;2022-07-01T10:05:22;2.15;;;0.57;;
60225;SDS011;46090;48.436;11.410;2022-07-01T10:07:58;1.65;;;0.40;;
60225;SDS011;46090;48.436;11.410;2022-07-01T10:10:44;2.15;;;0.50;;
60225;SDS011;46090;48.436;11.410;2022-07-01T10:13:21;2.03;;;0.43;;
60225;SDS011;46090;48.436;11.410;2022-07-01T10:15:54;4.45;;;0.60;;
60225;SDS011;46090;48.436;11.410;2022-07-01T10:18:24;1.90;;;0.40;;
60225;SDS011;46090;48.436;11.410;2022-07-01T10:20:52;1.95;;;0.52;;
60225;SDS011;46090;48.436;11.410;2022-07-01T10:23:21;1.55;;;0.30;;
60225;SDS011;46090;48.436;11.410;2022-07-01T10:25:50;1.65;;;0.50;;
60225;SDS011;46090;48.436;11.410;2022-07-01T10:28:28;1.38;;;0.50;;
60225;SDS011;46090;48.436;11.410;2022-07-01T10:31:06;1.42;;;0.63;;
60225;SDS011;46090;48.436;11.410;2022-07-01T10:41:32;1.30;;;0.22;;
60225;SDS011;46090;48.436;11.410;2022-07-01T10:44:10;1.30;;;0.30;;
60225;SDS011;46090;48.436;11.410;2022-07-01T10:49:20;1.38;;;0.28;;
60225;SDS011;46090;48.436;11.410;2022-07-01T10:51:52;1.70;;;0.40;;
60225;SDS011;46090;48.436;11.410;2022-07-01T11:02:29;2.20;;;0.40;;
60225;SDS011;46090;48.436;11.410;2022-07-01T11:05:14;2.85;;;0.30;;
60225;SDS011;46090;48.436;11.410;2022-07-01T11:07:44;3.40;;;0.47;;
60225;SDS011;46090;48.436;11.410;2022-07-01T11:10:15;1.23;;;0.40;;
60225;SDS011;46090;48.436;11.410;2022-07-01T11:12:44;1.48;;;0.40;;
60225;SDS011;46090;48.436;11.410;2022-07-01T11:15:12;1.63;;;0.50;;
60225;SDS011;46090;48.436;11.410;2022-07-01T11:17:43;1.33;;;0.43;;
60225;SDS011;46090;48.436;11.410;2022-07-01T11:20:13;1.58;;;0.40;;
60225;SDS011;46090;48.436;11.410;2022-07-01T11:22:47;0.97;;;0.40;;
60225;SDS011;46090;48.436;11.410;2022-07-01T11:25:16;1.55;;;0.40;;
60225;SDS011;46090;48.436;11.410;2022-07-01T11:27:50;2.30;;;0.40;;
60225;SDS011;46090;48.436;11.410;2022-07-01T11:30:18;1.02;;;0.32;;
60225;SDS011;46090;48.436;11.410;2022-07-01T11:32:51;2.85;;;0.50;;
60225;SDS011;46090;48.436;11.410;2022-07-01T11:35:28;1.60;;;0.40;;
60225;SDS011;46090;48.436;11.410;2022-07-01T11:41:17;1.45;;;0.38;;
60225;SDS011;46090;48.436;11.410;2022-07-01T11:43:47;1.35;;;0.30;;
60225;SDS011;46090;48.436;11.410;2022-07-01T11:46:15;1.05;;;0.40;;
60225;SDS011;46090;48.436;11.410;2022-07-01T11:48:48;1.08;;;0.35;;
60225;SDS011;46090;48.436;11.410;2022-07-01T11:51:22;1.80;;;0.40;;
60225;SDS011;46090;48.436;11.410;2022-07-01T11:53:51;1.25;;;0.28;;
60225;SDS011;46090;48.436;11.410;2022-07-01T11:59:03;1.45;;;0.28;;
60225;SDS011;46090;48.436;11.410;2022-07-01T12:01:32;0.80;;;0.30;;
60225;SDS011;46090;48.436;11.410;2022-07-01T12:04:02;2.20;;;0.30;;
60225;SDS011;46090;48.436;11.410;2022-07-01T12:06:32;1.95;;;0.35;;
60225;SDS011;46090;48.436;11.410;2022-07-01T12:09:01;1.05;;;0.35;;
60225;SDS011;46090;48.436;11.410;2022-07-01T12:11:29;3.08;;;0.45;;
60225;SDS011;46090;48.436;11.410;2022-07-01T12:14:04;1.75;;;0.47;;
60225;SDS011;46090;48.436;11.410;2022-07-01T12:16:38;2.75;;;0.50;;
60225;SDS011;46090;48.436;11.410;2022-07-01T12:19:07;3.53;;;0.50;;
60225;SDS011;46090;48.436;11.410;2022-07-01T12:21:47;3.17;;;0.80;;
60225;SDS011;46090;48.436;11.410;2022-07-01T12:24:21;2.33;;;0.40;;
60225;SDS011;46090;48.436;11.410;2022-07-01T12:29:30;3.20;;;0.45;;
60225;SDS011;46090;48.436;11.410;2022-07-01T12:32:16;1.42;;;0.50;;
60225;SDS011;46090;48.436;11.410;2022-07-01T12:34:58;2.25;;;0.70;;
60225;SDS011;46090;48.436;11.410;2022-07-01T12:37:33;1.58;;;0.40;;
60225;SDS011;46090;48.436;11.410;2022-07-01T12:40:03;1.65;;;0.52;;
60225;SDS011;46090;48.436;11.410;2022-07-01T12:42:34;5.22;;;0.80;;
60225;SDS011;46090;48.436;11.410;2022-07-01T12:45:07;1.75;;;0.47;;
60225;SDS011;46090;48.436;11.410;2022-07-01T12:47:40;1.05;;;0.40;;
60225;SDS011;46090;48.436;11.410;2022-07-01T12:52:43;2.47;;;0.40;;
60225;SDS011;46090;48.436;11.410;2022-07-01T12:55:23;1.65;;;0.57;;
60225;SDS011;46090;48.436;11.410;2022-07-01T12:57:51;1.40;;;0.40;;
60225;SDS011;46090;48.436;11.410;2022-07-01T13:00:22;2.58;;;0.35;;
60225;SDS011;46090;48.436;11.410;2022-07-01T13:02:53;1.35;;;0.38;;
60225;SDS011;46090;48.436;11.410;2022-07-01T13:05:23;1.23;;;0.50;;
60225;SDS011;46090;48.436;11.410;2022-07-01T13:07:51;1.55;;;0.38;;
60225;SDS011;46090;48.436;11.410;2022-07-01T13:10:20;2.38;;;0.50;;
60225;SDS011;46090;48.436;11.410;2022-07-01T13:12:49;2.13;;;0.40;;
60225;SDS011;46090;48.436;11.410;2022-07-01T13:15:18;2.03;;;0.32;;
60225;SDS011;46090;48.436;11.410;2022-07-01T13:17:47;1.67;;;0.47;;
60225;SDS011;46090;48.436;11.410;2022-07-01T13:20:16;2.00;;;0.30;;
60225;SDS011;46090;48.436;11.410;2022-07-01T13:22:44;1.42;;;0.35;;
60225;SDS011;46090;48.436;11.410;2022-07-01T13:25:12;0.98;;;0.30;;
60225;SDS011;46090;48.436;11.410;2022-07-01T13:27:41;1.88;;;0.40;;
60225;SDS011;46090;48.436;11.410;2022-07-01T13:30:10;2.80;;;0.90;;
60225;SDS011;46090;48.436;11.410;2022-07-01T13:32:39;1.02;;;0.30;;
60225;SDS011;46090;48.436;11.410;2022-07-01T13:35:07;1.98;;;0.40;;
60225;SDS011;46090;48.436;11.410;2022-07-01T13:37:40;1.58;;;0.50;;
60225;SDS011;46090;48.436;11.410;2022-07-01T13:40:09;1.48;;;0.30;;
60225;SDS011;46090;48.436;11.410;2022-07-01T13:42:37;1.98;;;0.50;;
60225;SDS011;46090;48.436;11.410;2022-07-01T13:45:06;2.13;;;0.63;;
60225;SDS011;46090;48.436;11.410;2022-07-01T13:47:35;1.88;;;0.50;;
60225;SDS011;46090;48.436;11.410;2022-07-01T13:50:04;1.58;;;0.50;;
60225;SDS011;46090;48.436;11.410;2022-07-01T13:52:31;2.28;;;0.60;;
60225;SDS011;46090;48.436;11.410;2022-07-01T13:55:03;2.20;;;0.65;;
60225;SDS011;46090;48.436;11.410;2022-07-01T13:57:31;1.42;;;0.50;;
60225;SDS011;46090;48.436;11.410;2022-07-01T14:00:00;2.17;;;0.63;;
60225;SDS011;46090;48.436;11.410;2022-07-01T14:02:37;1.52;;;0.55;;
60225;SDS011;46090;48.436;11.410;2022-07-01T14:05:07;2.28;;;0.63;;
60225;SDS011;46090;48.436;11.410;2022-07-01T14:07:38;3.55;;;0.77;;
60225;SDS011;46090;48.436;11.410;2022-07-01T14:10:11;4.25;;;1.00;;
60225;SDS011;46090;48.436;11.410;2022-07-01T14:12:41;4.57;;;1.17;;
60225;SDS011;46090;48.436;11.410;2022-07-01T14:15:11;2.25;;;0.52;;
60225;SDS011;46090;48.436;11.410;2022-07-01T14:17:39;3.05;;;0.70;;
60225;SDS011;46090;48.436;11.410;2022-07-01T14:20:08;2.42;;;0.68;;
60225;SDS011;46090;48.436;11.410;2022-07-01T14:22:37;2.42;;;1.02;;
60225;SDS011;46090;48.436;11.410;2022-07-01T14:25:10;2.55;;;0.60;;
60225;SDS011;46090;48.436;11.410;2022-07-01T14:27:40;2.30;;;0.73;;
60225;SDS011;46090;48.436;11.410;2022-07-01T14:30:08;3.10;;;0.52;;
60225;SDS011;46090;48.436;11.410;2022-07-01T14:32:37;1.55;;;0.50;;
60225;SDS011;46090;48.436;11.410;2022-07-01T14:35:06;1.92;;;0.60;;
60225;SDS011;46090;48.436;11.410;2022-07-01T14:37:34;2.53;;;0.70;;
60225;SDS011;46090;48.436;11.410;2022-07-01T14:40:05;4.30;;;1.00;;
60225;SDS011;46090;48.436;11.410;2022-07-01T14:42:35;2.80;;;0.60;;
60225;SDS011;46090;48.436;11.410;2022-07-01T14:45:04;2.03;;;0.50;;
60225;SDS011;46090;48.436;11.410;2022-07-01T14:47:33;1.52;;;0.50;;
60225;SDS011;46090;48.436;11.410;2022-07-01T14:50:00;1.50;;;0.50;;
60225;SDS011;46090;48.436;11.410;2022-07-01T14:52:28;2.30;;;0.68;;
60225;SDS011;46090;48.436;11.410;2022-07-01T14:54:56;2.22;;;0.60;;
60225;SDS011;46090;48.436;11.410;2022-07-01T14:57:31;2.00;;;0.63;;
60225;SDS011;46090;48.436;11.410;2022-07-01T15:00:03;2.72;;;0.60;;
60225;SDS011;46090;48.436;11.410;2022-07-01T15:02:32;1.48;;;0.45;;
60225;SDS011;46090;48.436;11.410;2022-07-01T15:05:02;2.88;;;0.70;;
60225;SDS011;46090;48.436;11.410;2022-07-01T15:07:29;2.60;;;0.50;;
60225;SDS011;46090;48.436;11.410;2022-07-01T15:09:57;2.63;;;0.50;;
60225;SDS011;46090;48.436;11.410;2022-07-01T15:12:30;1.55;;;0.40;;
60225;SDS011;46090;48.436;11.410;2022-07-01T15:14:57;1.75;;;0.50;;
60225;SDS011;46090;48.436;11.410;2022-07-01T15:17:24;2.55;;;0.60;;
60225;SDS011;46090;48.436;11.410;2022-07-01T15:19:52;2.08;;;0.65;;
60225;SDS011;46090;48.436;11.410;2022-07-01T15:22:23;1.33;;;0.45;;
60225;SDS011;46090;48.436;11.410;2022-07-01T15:24:51;1.70;;;0.32;;
60225;SDS011;46090;48.436;11.410;2022-07-01T15:27:18;2.15;;;0.57;;
60225;SDS011;46090;48.436;11.410;2022-07-01T15:29:45;3.22;;;0.50;;
60225;SDS011;46090;48.436;11.410;2022-07-01T15:32:12;2.08;;;0.40;;
60225;SDS011;46090;48.436;11.410;2022-07-01T15:34:40;3.10;;;0.47;;
60225;SDS011;46090;48.436;11.410;2022-07-01T15:37:08;3.13;;;0.50;;
60225;SDS011;46090;48.436;11.410;2022-07-01T15:39:35;2.28;;;0.47;;
60225;SDS011;46090;48.436;11.410;2022-07-01T15:42:04;1.35;;;0.38;;